sensor_id;sensor_type;location;lat;lon;timestamp;pressure;altitude;pressure_sealevel;temperature;humidity
68197;BME280;55019;49.382;11.358;2022-11-15T00:01:35;96564.69;;;5.37;89.11
68197;BME280;55019;49.382;11.358;2022-11-15T00:04:03;96565.75;;;5.35;89.28
68197;BME280;55019;49.382;11.358;2022-11-15T00:06:29;96559.16;;;5.32;89.20
68197;BME280;55019;49.382;11.358;2022-11-15T00:08:55;96570.19;;;5.33;89.37
68197;BME280;55019;49.382;11.358;2022-11-15T00:11:22;96554.16;;;5.31;89.49
68197;BME280;55019;49.382;11.358;2022-11-15T00:13:48;96560.09;;;5.31;89.35
68197;BME280;55019;49.382;11.358;2022-11-15T00:16:13;96555.50;;;5.35;89.60
68197;BME280;55019;49.382;11.358;2022-11-15T00:18:39;96559.84;;;5.34;89.18
68197;BME280;55019;49.382;11.358;2022-11-15T00:21:10;96554.56;;;5.36;89.30
68197;BME280;55019;49.382;11.358;2022-11-15T00:23:35;96550.56;;;5.43;88.78
68197;BME280;55019;49.382;11.358;2022-11-15T00:26:01;96553.38;;;5.40;89.11
68197;BME280;55019;49.382;11.358;2022-11-15T00:28:26;96559.19;;;5.42;88.73
68197;BME280;55019;49.382;11.358;2022-11-15T00:30:52;96547.31;;;5.50;88.31
68197;BME280;55019;49.382;11.358;2022-11-15T00:33:17;96553.69;;;5.56;88.48
68197;BME280;55019;49.382;11.358;2022-11-15T00:35:43;96554.38;;;5.67;87.78
68197;BME280;55019;49.382;11.358;2022-11-15T00:38:08;96546.69;;;5.67;87.69
68197;BME280;55019;49.382;11.358;2022-11-15T00:40:34;96553.00;;;5.72;88.06
68197;BME280;55019;49.382;11.358;2022-11-15T00:42:59;96545.88;;;5.76;88.09
68197;BME280;55019;49.382;11.358;2022-11-15T00:45:25;96548.59;;;5.84;88.23
68197;BME280;55019;49.382;11.358;2022-11-15T00:47:51;96557.94;;;5.94;87.68
68197;BME280;55019;49.382;11.358;2022-11-15T00:50:17;96543.59;;;6.01;87.26
68197;BME280;55019;49.382;11.358;2022-11-15T00:52:43;96538.31;;;6.12;87.16
68197;BME280;55019;49.382;11.358;2022-11-15T00:55:18;96532.53;;;6.10;87.42
68197;BME280;55019;49.382;11.358;2022-11-15T00:57:44;96531.84;;;6.18;87.01
68197;BME280;55019;49.382;11.358;2022-11-15T01:00:11;96532.53;;;6.20;86.82
68197;BME280;55019;49.382;11.358;2022-11-15T01:02:36;96528.84;;;6.22;86.80
68197;BME280;55019;49.382;11.358;2022-11-15T01:05:02;96530.75;;;6.20;86.88
68197;BME280;55019;49.382;11.358;2022-11-15T01:07:27;96528.59;;;6.25;86.46
68197;BME280;55019;49.382;11.358;2022-11-15T01:09:52;96528.31;;;6.28;86.20
68197;BME280;55019;49.382;11.358;2022-11-15T01:12:18;96535.72;;;6.31;85.68
68197;BME280;55019;49.382;11.358;2022-11-15T01:14:43;96529.13;;;6.38;85.16
68197;BME280;55019;49.382;11.358;2022-11-15T01:17:09;96522.47;;;6.45;84.78
68197;BME280;55019;49.382;11.358;2022-11-15T01:19:34;96515.56;;;6.55;83.52
68197;BME280;55019;49.382;11.358;2022-11-15T01:21:59;96521.09;;;6.51;84.43
68197;BME280;55019;49.382;11.358;2022-11-15T01:24:25;96524.75;;;6.48;83.47
68197;BME280;55019;49.382;11.358;2022-11-15T01:26:50;96524.59;;;6.50;83.52
68197;BME280;55019;49.382;11.358;2022-11-15T01:29:16;96519.78;;;6.37;84.22
68197;BME280;55019;49.382;11.358;2022-11-15T01:31:41;96513.84;;;6.37;84.15
68197;BME280;55019;49.382;11.358;2022-11-15T01:34:07;96500.47;;;6.33;83.86
68197;BME280;55019;49.382;11.358;2022-11-15T01:36:32;96509.81;;;6.25;84.19
68197;BME280;55019;49.382;11.358;2022-11-15T01:38:58;96506.31;;;6.16;84.23
68197;BME280;55019;49.382;11.358;2022-11-15T01:41:27;96502.28;;;6.14;84.54
68197;BME280;55019;49.382;11.358;2022-11-15T01:43:56;96511.34;;;6.18;84.06
68197;BME280;55019;49.382;11.358;2022-11-15T01:48:47;96500.53;;;6.05;83.91
68197;BME280;55019;49.382;11.358;2022-11-15T01:51:17;96496.09;;;5.97;84.18
68197;BME280;55019;49.382;11.358;2022-11-15T01:53:46;96502.19;;;5.96;84.80
68197;BME280;55019;49.382;11.358;2022-11-15T01:56:16;96496.22;;;5.86;84.63
68197;BME280;55019;49.382;11.358;2022-11-15T01:58:44;96484.63;;;5.82;84.79
68197;BME280;55019;49.382;11.358;2022-11-15T02:01:14;96483.78;;;5.72;85.22
68197;BME280;55019;49.382;11.358;2022-11-15T02:03:51;96485.72;;;5.80;84.92
68197;BME280;55019;49.382;11.358;2022-11-15T02:06:20;96473.81;;;5.69;85.41
68197;BME280;55019;49.382;11.358;2022-11-15T02:08:47;96477.31;;;5.68;85.38
68197;BME280;55019;49.382;11.358;2022-11-15T02:11:12;96460.88;;;5.62;85.48
68197;BME280;55019;49.382;11.358;2022-11-15T02:13:38;96457.91;;;5.57;85.44
68197;BME280;55019;49.382;11.358;2022-11-15T02:16:15;96464.78;;;5.56;85.25
68197;BME280;55019;49.382;11.358;2022-11-15T02:27:47;96450.09;;;5.39;85.67
68197;BME280;55019;49.382;11.358;2022-11-15T02:36:41;96431.72;;;5.25;86.41
68197;BME280;55019;49.382;11.358;2022-11-15T02:39:20;96443.06;;;5.32;85.85
68197;BME280;55019;49.382;11.358;2022-11-15T02:42:03;96430.13;;;5.33;85.83
68197;BME280;55019;49.382;11.358;2022-11-15T02:44:37;96427.00;;;5.30;85.69
68197;BME280;55019;49.382;11.358;2022-11-15T02:47:06;96421.63;;;5.33;85.69
68197;BME280;55019;49.382;11.358;2022-11-15T02:49:50;96420.28;;;5.38;85.13
68197;BME280;55019;49.382;11.358;2022-11-15T02:52:19;96416.66;;;5.41;85.27
68197;BME280;55019;49.382;11.358;2022-11-15T02:54:59;96423.41;;;5.42;84.71
68197;BME280;55019;49.382;11.358;2022-11-15T02:57:54;96428.78;;;5.39;84.95
68197;BME280;55019;49.382;11.358;2022-11-15T03:00:21;96416.94;;;5.38;85.22
68197;BME280;55019;49.382;11.358;2022-11-15T03:03:09;96418.00;;;5.35;84.87
68197;BME280;55019;49.382;11.358;2022-11-15T03:06:00;96420.16;;;5.40;84.72
68197;BME280;55019;49.382;11.358;2022-11-15T03:11:22;96403.97;;;5.30;85.16
68197;BME280;55019;49.382;11.358;2022-11-15T03:14:12;96404.66;;;5.22;85.34
68197;BME280;55019;49.382;11.358;2022-11-15T03:16:44;96399.66;;;5.21;85.22
68197;BME280;55019;49.382;11.358;2022-11-15T03:22:03;96400.59;;;5.29;85.33
68197;BME280;55019;49.382;11.358;2022-11-15T03:24:33;96399.50;;;5.32;84.74
68197;BME280;55019;49.382;11.358;2022-11-15T03:27:01;96394.81;;;5.27;84.72
68197;BME280;55019;49.382;11.358;2022-11-15T03:29:35;96391.03;;;5.22;84.92
68197;BME280;55019;49.382;11.358;2022-11-15T03:32:07;96397.25;;;5.19;85.33
68197;BME280;55019;49.382;11.358;2022-11-15T03:34:39;96392.63;;;5.23;84.79
68197;BME280;55019;49.382;11.358;2022-11-15T03:37:07;96388.06;;;5.17;85.29
68197;BME280;55019;49.382;11.358;2022-11-15T03:39:33;96390.63;;;5.17;85.11
68197;BME280;55019;49.382;11.358;2022-11-15T03:45:37;96386.16;;;5.00;85.56
68197;BME280;55019;49.382;11.358;2022-11-15T03:48:19;96390.75;;;4.96;85.78
68197;BME280;55019;49.382;11.358;2022-11-15T03:50:46;96390.22;;;4.93;85.44
68197;BME280;55019;49.382;11.358;2022-11-15T03:53:13;96380.25;;;4.90;85.53
68197;BME280;55019;49.382;11.358;2022-11-15T03:55:38;96383.75;;;4.89;86.27
68197;BME280;55019;49.382;11.358;2022-11-15T03:58:04;96380.25;;;4.90;86.03
68197;BME280;55019;49.382;11.358;2022-11-15T04:00:29;96377.69;;;4.90;85.73
68197;BME280;55019;49.382;11.358;2022-11-15T04:02:55;96363.53;;;4.86;85.87
68197;BME280;55019;49.382;11.358;2022-11-15T04:05:20;96371.09;;;4.97;85.55
68197;BME280;55019;49.382;11.358;2022-11-15T04:07:46;96371.34;;;4.94;85.38
68197;BME280;55019;49.382;11.358;2022-11-15T04:10:12;96366.78;;;4.88;85.66
68197;BME280;55019;49.382;11.358;2022-11-15T04:12:42;96369.47;;;4.96;85.52
68197;BME280;55019;49.382;11.358;2022-11-15T04:15:17;96370.38;;;5.04;84.82
68197;BME280;55019;49.382;11.358;2022-11-15T04:17:48;96367.31;;;5.01;85.41
68197;BME280;55019;49.382;11.358;2022-11-15T04:20:15;96369.47;;;4.96;85.54
68197;BME280;55019;49.382;11.358;2022-11-15T04:23:01;96369.47;;;4.96;85.11
68197;BME280;55019;49.382;11.358;2022-11-15T04:25:48;96368.63;;;4.95;85.16
68197;BME280;55019;49.382;11.358;2022-11-15T04:28:15;96367.84;;;4.95;85.06
68197;BME280;55019;49.382;11.358;2022-11-15T04:30:40;96368.50;;;4.87;85.15
68197;BME280;55019;49.382;11.358;2022-11-15T04:33:06;96363.25;;;4.89;85.21
68197;BME280;55019;49.382;11.358;2022-11-15T04:35:31;96365.94;;;4.87;85.38
68197;BME280;55019;49.382;11.358;2022-11-15T04:37:57;96369.31;;;4.88;85.12
68197;BME280;55019;49.382;11.358;2022-11-15T04:40:23;96361.09;;;4.84;85.30
68197;BME280;55019;49.382;11.358;2022-11-15T04:42:48;96357.31;;;4.79;85.24
68197;BME280;55019;49.382;11.358;2022-11-15T04:45:14;96362.94;;;4.73;85.63
68197;BME280;55019;49.382;11.358;2022-11-15T04:47:42;96354.88;;;4.68;85.85
68197;BME280;55019;49.382;11.358;2022-11-15T04:50:08;96345.97;;;4.72;85.97
68197;BME280;55019;49.382;11.358;2022-11-15T04:52:33;96355.69;;;4.68;85.56
68197;BME280;55019;49.382;11.358;2022-11-15T04:54:58;96350.97;;;4.64;86.04
68197;BME280;55019;49.382;11.358;2022-11-15T04:57:24;96356.06;;;4.64;85.63
68197;BME280;55019;49.382;11.358;2022-11-15T04:59:49;96358.63;;;4.64;85.66
68197;BME280;55019;49.382;11.358;2022-11-15T05:02:15;96345.72;;;4.65;86.14
68197;BME280;55019;49.382;11.358;2022-11-15T05:04:40;96345.56;;;4.67;85.66
68197;BME280;55019;49.382;11.358;2022-11-15T05:07:05;96340.34;;;4.68;85.03
68197;BME280;55019;49.382;11.358;2022-11-15T05:09:31;96342.22;;;4.66;85.44
68197;BME280;55019;49.382;11.358;2022-11-15T05:11:56;96341.94;;;4.79;85.81
68197;BME280;55019;49.382;11.358;2022-11-15T05:14:22;96340.31;;;4.78;85.09
68197;BME280;55019;49.382;11.358;2022-11-15T05:16:47;96335.63;;;4.83;85.03
68197;BME280;55019;49.382;11.358;2022-11-15T05:19:13;96342.22;;;4.76;85.21
68197;BME280;55019;49.382;11.358;2022-11-15T05:21:38;96328.47;;;4.77;84.82
68197;BME280;55019;49.382;11.358;2022-11-15T05:24:04;96336.31;;;4.85;85.00
68197;BME280;55019;49.382;11.358;2022-11-15T05:26:29;96329.16;;;4.88;84.61
68197;BME280;55019;49.382;11.358;2022-11-15T05:28:56;96327.94;;;4.92;84.05
68197;BME280;55019;49.382;11.358;2022-11-15T05:31:22;96326.88;;;4.85;84.39
68197;BME280;55019;49.382;11.358;2022-11-15T05:33:49;96322.81;;;4.92;84.56
68197;BME280;55019;49.382;11.358;2022-11-15T05:36:36;96332.00;;;4.95;84.32
68197;BME280;55019;49.382;11.358;2022-11-15T05:39:06;96329.97;;;4.98;84.23
68197;BME280;55019;49.382;11.358;2022-11-15T05:41:54;96325.81;;;4.88;84.24
68197;BME280;55019;49.382;11.358;2022-11-15T05:44:22;96327.69;;;4.86;84.42
68197;BME280;55019;49.382;11.358;2022-11-15T05:46:49;96330.66;;;4.81;84.43
68197;BME280;55019;49.382;11.358;2022-11-15T05:49:18;96327.66;;;4.67;85.38
68197;BME280;55019;49.382;11.358;2022-11-15T05:51:46;96326.44;;;4.71;85.04
68197;BME280;55019;49.382;11.358;2022-11-15T05:54:14;96316.38;;;4.69;84.95
68197;BME280;55019;49.382;11.358;2022-11-15T05:56:39;96329.00;;;4.71;85.14
68197;BME280;55019;49.382;11.358;2022-11-15T05:59:05;96322.28;;;4.79;84.63
68197;BME280;55019;49.382;11.358;2022-11-15T06:01:32;96322.56;;;4.76;84.60
68197;BME280;55019;49.382;11.358;2022-11-15T06:03:57;96318.50;;;4.74;84.68
68197;BME280;55019;49.382;11.358;2022-11-15T06:06:23;96318.66;;;4.72;84.90
68197;BME280;55019;49.382;11.358;2022-11-15T06:08:48;96316.88;;;4.73;84.74
68197;BME280;55019;49.382;11.358;2022-11-15T06:11:14;96321.06;;;4.74;85.08
68197;BME280;55019;49.382;11.358;2022-11-15T06:13:40;96312.44;;;4.75;84.74
68197;BME280;55019;49.382;11.358;2022-11-15T06:16:05;96311.22;;;4.79;84.49
68197;BME280;55019;49.382;11.358;2022-11-15T06:18:34;96312.19;;;4.78;84.62
68197;BME280;55019;49.382;11.358;2022-11-15T06:21:00;96310.16;;;4.72;84.56
68197;BME280;55019;49.382;11.358;2022-11-15T06:23:26;96312.72;;;4.72;84.70
68197;BME280;55019;49.382;11.358;2022-11-15T06:25:51;96329.28;;;4.68;85.56
68197;BME280;55019;49.382;11.358;2022-11-15T06:28:17;96336.56;;;4.63;85.08
68197;BME280;55019;49.382;11.358;2022-11-15T06:30:42;96334.38;;;4.58;85.79
68197;BME280;55019;49.382;11.358;2022-11-15T06:33:07;96330.91;;;4.59;85.73
68197;BME280;55019;49.382;11.358;2022-11-15T06:35:34;96323.72;;;4.53;85.91
68197;BME280;55019;49.382;11.358;2022-11-15T06:38:05;96324.81;;;4.51;86.45
68197;BME280;55019;49.382;11.358;2022-11-15T06:40:36;96323.63;;;4.55;85.91
68197;BME280;55019;49.382;11.358;2022-11-15T06:43:02;96328.06;;;4.53;85.80
68197;BME280;55019;49.382;11.358;2022-11-15T06:45:28;96341.53;;;4.55;86.36
68197;BME280;55019;49.382;11.358;2022-11-15T06:47:53;96351.09;;;4.53;86.18
68197;BME280;55019;49.382;11.358;2022-11-15T06:50:19;96344.09;;;4.55;86.28
68197;BME280;55019;49.382;11.358;2022-11-15T06:52:44;96349.19;;;4.55;86.10
68197;BME280;55019;49.382;11.358;2022-11-15T06:55:10;96345.03;;;4.54;85.92
68197;BME280;55019;49.382;11.358;2022-11-15T06:57:36;96349.19;;;4.55;86.60
68197;BME280;55019;49.382;11.358;2022-11-15T07:00:05;96350.28;;;4.62;86.06
68197;BME280;55019;49.382;11.358;2022-11-15T07:02:31;96345.16;;;4.62;86.43
68197;BME280;55019;49.382;11.358;2022-11-15T07:04:56;96350.16;;;4.73;86.17
68197;BME280;55019;49.382;11.358;2022-11-15T07:07:21;96343.84;;;4.77;86.01
68197;BME280;55019;49.382;11.358;2022-11-15T07:09:47;96354.06;;;4.77;85.71
68197;BME280;55019;49.382;11.358;2022-11-15T07:12:12;96347.06;;;4.79;85.93
68197;BME280;55019;49.382;11.358;2022-11-15T07:14:39;96351.69;;;4.85;85.30
68197;BME280;55019;49.382;11.358;2022-11-15T07:17:05;96350.31;;;4.90;85.16
68197;BME280;55019;49.382;11.358;2022-11-15T07:19:30;96347.34;;;5.04;85.31
68197;BME280;55019;49.382;11.358;2022-11-15T07:21:56;96343.16;;;5.03;85.24
68197;BME280;55019;49.382;11.358;2022-11-15T07:24:21;96340.63;;;5.13;84.96
68197;BME280;55019;49.382;11.358;2022-11-15T07:26:47;96334.13;;;5.28;84.85
68197;BME280;55019;49.382;11.358;2022-11-15T07:29:12;96333.94;;;5.58;83.04
68197;BME280;55019;49.382;11.358;2022-11-15T07:31:37;96328.25;;;5.73;82.41
68197;BME280;55019;49.382;11.358;2022-11-15T07:34:04;96335.13;;;5.82;82.03
68197;BME280;55019;49.382;11.358;2022-11-15T07:36:29;96340.16;;;6.10;81.25
68197;BME280;55019;49.382;11.358;2022-11-15T07:38:54;96335.22;;;6.53;79.61
68197;BME280;55019;49.382;11.358;2022-11-15T07:41:20;96330.25;;;6.87;77.67
68197;BME280;55019;49.382;11.358;2022-11-15T07:43:45;96325.28;;;7.45;76.18
68197;BME280;55019;49.382;11.358;2022-11-15T07:46:11;96337.06;;;8.24;73.64
68197;BME280;55019;49.382;11.358;2022-11-15T07:48:37;96329.91;;;9.25;69.24
68197;BME280;55019;49.382;11.358;2022-11-15T08:06:44;96317.88;;;11.70;58.85
68197;BME280;55019;49.382;11.358;2022-11-15T08:09:12;96290.13;;;11.19;59.13
68197;BME280;55019;49.382;11.358;2022-11-15T08:11:40;96304.97;;;12.13;57.57
68197;BME280;55019;49.382;11.358;2022-11-15T08:14:12;96287.31;;;13.44;52.60
68197;BME280;55019;49.382;11.358;2022-11-15T08:16:41;96293.22;;;16.24;45.63
68197;BME280;55019;49.382;11.358;2022-11-15T08:19:07;96276.88;;;17.66;42.31
68197;BME280;55019;49.382;11.358;2022-11-15T08:21:32;96284.94;;;19.26;37.92
68197;BME280;55019;49.382;11.358;2022-11-15T08:23:58;96290.41;;;19.07;37.32
68197;BME280;55019;49.382;11.358;2022-11-15T08:26:23;96291.09;;;19.73;36.83
68197;BME280;55019;49.382;11.358;2022-11-15T08:28:50;96278.94;;;20.75;35.18
68197;BME280;55019;49.382;11.358;2022-11-15T08:31:17;96283.44;;;21.91;32.27
68197;BME280;55019;49.382;11.358;2022-11-15T08:33:43;96274.81;;;22.12;32.28
68197;BME280;55019;49.382;11.358;2022-11-15T08:36:14;96279.16;;;21.85;31.96
68197;BME280;55019;49.382;11.358;2022-11-15T08:38:43;96270.84;;;22.90;31.23
68197;BME280;55019;49.382;11.358;2022-11-15T08:41:31;96265.94;;;22.99;30.42
68197;BME280;55019;49.382;11.358;2022-11-15T08:43:56;96255.91;;;22.96;30.34
68197;BME280;55019;49.382;11.358;2022-11-15T08:46:22;96272.09;;;22.83;31.12
68197;BME280;55019;49.382;11.358;2022-11-15T08:48:47;96261.34;;;23.37;29.58
68197;BME280;55019;49.382;11.358;2022-11-15T08:51:13;96262.09;;;22.42;30.48
68197;BME280;55019;49.382;11.358;2022-11-15T08:53:38;96262.97;;;22.31;30.18
68197;BME280;55019;49.382;11.358;2022-11-15T08:56:07;96258.66;;;22.03;31.86
68197;BME280;55019;49.382;11.358;2022-11-15T08:58:35;96262.47;;;22.12;31.11
68197;BME280;55019;49.382;11.358;2022-11-15T09:01:01;96256.34;;;23.98;29.25
68197;BME280;55019;49.382;11.358;2022-11-15T09:03:27;96250.75;;;23.06;29.75
68197;BME280;55019;49.382;11.358;2022-11-15T09:05:59;96255.25;;;24.77;28.07
68197;BME280;55019;49.382;11.358;2022-11-15T09:08:29;96246.69;;;24.55;27.67
68197;BME280;55019;49.382;11.358;2022-11-15T09:10:55;96247.63;;;23.35;28.93
68197;BME280;55019;49.382;11.358;2022-11-15T09:13:21;96250.72;;;23.27;29.25
68197;BME280;55019;49.382;11.358;2022-11-15T09:15:46;96247.31;;;24.77;27.30
68197;BME280;55019;49.382;11.358;2022-11-15T09:18:12;96241.13;;;25.63;26.46
68197;BME280;55019;49.382;11.358;2022-11-15T09:20:37;96239.63;;;24.76;27.71
68197;BME280;55019;49.382;11.358;2022-11-15T09:23:04;96238.41;;;26.53;24.80
68197;BME280;55019;49.382;11.358;2022-11-15T09:25:30;96241.41;;;26.01;25.35
68197;BME280;55019;49.382;11.358;2022-11-15T09:27:56;96239.03;;;25.70;24.73
68197;BME280;55019;49.382;11.358;2022-11-15T09:30:22;96233.88;;;23.91;27.45
68197;BME280;55019;49.382;11.358;2022-11-15T09:32:48;96230.84;;;25.61;25.89
68197;BME280;55019;49.382;11.358;2022-11-15T09:35:13;96225.00;;;25.34;26.38
68197;BME280;55019;49.382;11.358;2022-11-15T09:37:39;96220.34;;;26.64;24.78
68197;BME280;55019;49.382;11.358;2022-11-15T09:40:04;96220.47;;;27.41;23.65
68197;BME280;55019;49.382;11.358;2022-11-15T09:42:34;96224.66;;;26.36;24.64
68197;BME280;55019;49.382;11.358;2022-11-15T09:45:23;96224.47;;;25.92;25.19
68197;BME280;55019;49.382;11.358;2022-11-15T09:50:51;96209.66;;;25.26;25.32
68197;BME280;55019;49.382;11.358;2022-11-15T09:53:41;96209.91;;;26.10;26.10
68197;BME280;55019;49.382;11.358;2022-11-15T09:56:19;96201.88;;;26.50;24.47
68197;BME280;55019;49.382;11.358;2022-11-15T10:01:37;96209.31;;;26.33;24.88
68197;BME280;55019;49.382;11.358;2022-11-15T10:04:05;96199.06;;;25.31;25.97
68197;BME280;55019;49.382;11.358;2022-11-15T10:06:34;96198.53;;;25.74;25.90
68197;BME280;55019;49.382;11.358;2022-11-15T10:09:06;96199.31;;;25.75;25.88
68197;BME280;55019;49.382;11.358;2022-11-15T10:11:35;96190.66;;;26.62;24.87
68197;BME280;55019;49.382;11.358;2022-11-15T10:14:14;96175.03;;;25.33;26.51
68197;BME280;55019;49.382;11.358;2022-11-15T10:22:37;96168.09;;;27.18;24.12
68197;BME280;55019;49.382;11.358;2022-11-15T10:25:15;96162.19;;;26.25;25.00
68197;BME280;55019;49.382;11.358;2022-11-15T10:27:42;96167.06;;;25.88;26.61
68197;BME280;55019;49.382;11.358;2022-11-15T10:30:16;96156.34;;;26.23;25.34
68197;BME280;55019;49.382;11.358;2022-11-15T10:32:44;96153.16;;;27.32;24.56
68197;BME280;55019;49.382;11.358;2022-11-15T10:35:20;96142.47;;;27.99;23.58
68197;BME280;55019;49.382;11.358;2022-11-15T10:37:45;96136.34;;;27.75;22.94
68197;BME280;55019;49.382;11.358;2022-11-15T10:40:22;96128.56;;;28.54;22.04
68197;BME280;55019;49.382;11.358;2022-11-15T10:43:04;96138.94;;;28.27;23.17
68197;BME280;55019;49.382;11.358;2022-11-15T10:45:32;96135.22;;;28.28;22.25
68197;BME280;55019;49.382;11.358;2022-11-15T10:53:46;96118.63;;;27.37;23.51
68197;BME280;55019;49.382;11.358;2022-11-15T10:56:14;96101.59;;;29.34;20.68
68197;BME280;55019;49.382;11.358;2022-11-15T10:58:57;96091.28;;;28.77;22.19
68197;BME280;55019;49.382;11.358;2022-11-15T11:05:25;96100.38;;;29.59;21.66
68197;BME280;55019;49.382;11.358;2022-11-15T11:07:43;96091.97;;;31.08;19.82
68197;BME280;55019;49.382;11.358;2022-11-15T11:11:23;96071.38;;;31.44;19.58
68197;BME280;55019;49.382;11.358;2022-11-15T11:17:02;96083.50;;;31.28;18.97
68197;BME280;55019;49.382;11.358;2022-11-15T11:46:56;96075.03;;;28.97;21.08
68197;BME280;55019;49.382;11.358;2022-11-15T11:49:42;96035.56;;;27.89;21.97
68197;BME280;55019;49.382;11.358;2022-11-15T12:01:27;96058.16;;;28.28;21.37
68197;BME280;55019;49.382;11.358;2022-11-15T12:05:12;96021.28;;;30.26;19.88
68197;BME280;55019;49.382;11.358;2022-11-15T12:07:31;96015.16;;;28.81;21.29
68197;BME280;55019;49.382;11.358;2022-11-15T12:10:01;96037.47;;;29.49;20.94
68197;BME280;55019;49.382;11.358;2022-11-15T12:13:16;96032.44;;;29.74;20.10
68197;BME280;55019;49.382;11.358;2022-11-15T12:15:50;96025.75;;;29.77;20.23
68197;BME280;55019;49.382;11.358;2022-11-15T12:18:16;96030.53;;;29.03;21.07
68197;BME280;55019;49.382;11.358;2022-11-15T12:20:51;96024.09;;;28.53;21.41
68197;BME280;55019;49.382;11.358;2022-11-15T12:23:22;96023.69;;;28.05;21.97
68197;BME280;55019;49.382;11.358;2022-11-15T12:28:53;96020.25;;;28.04;22.49
68197;BME280;55019;49.382;11.358;2022-11-15T12:31:30;96023.09;;;27.14;22.80
68197;BME280;55019;49.382;11.358;2022-11-15T12:34:03;96009.31;;;25.82;25.07
68197;BME280;55019;49.382;11.358;2022-11-15T12:36:40;96008.28;;;28.07;23.16
68197;BME280;55019;49.382;11.358;2022-11-15T12:39:08;96015.44;;;28.06;22.71
68197;BME280;55019;49.382;11.358;2022-11-15T12:41:36;96013.59;;;27.60;23.79
68197;BME280;55019;49.382;11.358;2022-11-15T12:44:03;96009.94;;;27.79;22.97
68197;BME280;55019;49.382;11.358;2022-11-15T12:49:02;96018.97;;;27.78;23.00
68197;BME280;55019;49.382;11.358;2022-11-15T13:02:19;95999.72;;;29.61;20.82
68197;BME280;55019;49.382;11.358;2022-11-15T13:04:46;95996.25;;;26.87;23.29
68197;BME280;55019;49.382;11.358;2022-11-15T13:07:54;95993.31;;;24.19;27.49
68197;BME280;55019;49.382;11.358;2022-11-15T13:17:45;95980.91;;;22.65;30.02
68197;BME280;55019;49.382;11.358;2022-11-15T13:31:01;95987.81;;;17.54;40.59
68197;BME280;55019;49.382;11.358;2022-11-15T13:35:58;95981.69;;;16.88;42.97
68197;BME280;55019;49.382;11.358;2022-11-15T13:38:25;95982.56;;;16.58;44.50
68197;BME280;55019;49.382;11.358;2022-11-15T13:40:52;95975.34;;;16.04;44.96
68197;BME280;55019;49.382;11.358;2022-11-15T13:48:31;95975.38;;;15.61;47.23
68197;BME280;55019;49.382;11.358;2022-11-15T13:51:00;95981.34;;;15.30;48.79
68197;BME280;55019;49.382;11.358;2022-11-15T13:53:27;95976.19;;;14.98;47.97
68197;BME280;55019;49.382;11.358;2022-11-15T13:55:55;95977.25;;;14.84;50.38
68197;BME280;55019;49.382;11.358;2022-11-15T13:58:22;95962.47;;;14.71;50.37
68197;BME280;55019;49.382;11.358;2022-11-15T14:00:47;95965.50;;;14.55;49.69
68197;BME280;55019;49.382;11.358;2022-11-15T14:03:25;95957.88;;;14.28;51.26
68197;BME280;55019;49.382;11.358;2022-11-15T14:06:08;95952.09;;;14.33;51.45
68197;BME280;55019;49.382;11.358;2022-11-15T14:08:38;95958.63;;;14.03;53.52
68197;BME280;55019;49.382;11.358;2022-11-15T14:11:17;95940.28;;;14.04;52.93
68197;BME280;55019;49.382;11.358;2022-11-15T14:14:22;95934.03;;;13.73;52.80
68197;BME280;55019;49.382;11.358;2022-11-15T14:16:55;95937.22;;;13.62;53.65
68197;BME280;55019;49.382;11.358;2022-11-15T14:22:15;95919.66;;;13.77;51.64
68197;BME280;55019;49.382;11.358;2022-11-15T14:24:43;95923.41;;;13.48;52.00
68197;BME280;55019;49.382;11.358;2022-11-15T14:27:24;95924.19;;;13.36;52.63
68197;BME280;55019;49.382;11.358;2022-11-15T14:29:51;95918.94;;;13.23;53.50
68197;BME280;55019;49.382;11.358;2022-11-15T14:32:24;95915.09;;;13.06;53.64
68197;BME280;55019;49.382;11.358;2022-11-15T14:35:02;95920.28;;;13.06;53.75
68197;BME280;55019;49.382;11.358;2022-11-15T14:37:28;95926.22;;;12.94;54.19
68197;BME280;55019;49.382;11.358;2022-11-15T14:39:56;95924.16;;;12.89;54.27
68197;BME280;55019;49.382;11.358;2022-11-15T14:42:23;95924.31;;;12.81;55.42
68197;BME280;55019;49.382;11.358;2022-11-15T14:44:48;95918.53;;;12.79;55.08
68197;BME280;55019;49.382;11.358;2022-11-15T14:47:14;95925.81;;;12.63;56.29
68197;BME280;55019;49.382;11.358;2022-11-15T14:49:40;95912.13;;;12.41;56.53
68197;BME280;55019;49.382;11.358;2022-11-15T14:52:28;95920.25;;;12.32;57.65
68197;BME280;55019;49.382;11.358;2022-11-15T14:54:55;95923.94;;;12.16;58.21
68197;BME280;55019;49.382;11.358;2022-11-15T14:57:21;95918.88;;;12.08;58.18
68197;BME280;55019;49.382;11.358;2022-11-15T14:59:47;95918.97;;;11.94;58.69
68197;BME280;55019;49.382;11.358;2022-11-15T15:02:18;95905.09;;;11.80;58.95
68197;BME280;55019;49.382;11.358;2022-11-15T15:04:45;95918.00;;;11.74;59.90
68197;BME280;55019;49.382;11.358;2022-11-15T15:07:10;95909.34;;;11.67;59.48
68197;BME280;55019;49.382;11.358;2022-11-15T15:09:37;95914.03;;;11.57;59.90
68197;BME280;55019;49.382;11.358;2022-11-15T15:12:04;95906.00;;;11.52;61.24
68197;BME280;55019;49.382;11.358;2022-11-15T15:14:29;95905.50;;;11.42;61.99
68197;BME280;55019;49.382;11.358;2022-11-15T15:16:55;95897.91;;;11.20;62.22
68197;BME280;55019;49.382;11.358;2022-11-15T15:19:20;95900.38;;;11.07;62.88
68197;BME280;55019;49.382;11.358;2022-11-15T15:21:46;95894.66;;;10.97;63.79
68197;BME280;55019;49.382;11.358;2022-11-15T15:24:14;95899.69;;;10.84;64.37
68197;BME280;55019;49.382;11.358;2022-11-15T15:26:42;95891.41;;;10.74;64.74
68197;BME280;55019;49.382;11.358;2022-11-15T15:29:09;95883.94;;;10.64;64.46
68197;BME280;55019;49.382;11.358;2022-11-15T15:31:34;95888.06;;;10.59;65.11
68197;BME280;55019;49.382;11.358;2022-11-15T15:34:00;95885.47;;;10.44;65.64
68197;BME280;55019;49.382;11.358;2022-11-15T15:36:25;95877.09;;;10.28;66.34